Time,TemperatureF,DewpointF,PressureIn,WindDirection,WindDirectionDegrees,WindSpeedMPH,WindSpeedGustMPH,Humidity,HourlyPrecipIn,Conditions,Clouds,dailyrainin,SolarRadiationWatts/m^2,SoftwareType,DateUTC
2013-02-01 00:01:00,50.3,49.2,30.14,SE,124,2.0,2.0,96,0.00,,,0.00,0,Wunderground v.1.15,2013-01-31 23:01:00,
2013-02-01 00:11:00,50.4,49.0,30.14,SSE,153,1.0,1.0,95,0.00,,,0.00,0,Wunderground v.1.15,2013-01-31 23:11:00,
2013-02-01 00:16:00,50.4,49.0,30.14,SSE,153,0.0,1.0,95,0.00,,,0.00,0,Wunderground v.1.15,2013-01-31 23:16:00,
2013-02-01 00:21:00,50.5,49.1,30.14,SSE,153,0.0,0.0,95,0.00,,,0.00,0,Wunderground v.1.15,2013-01-31 23:21:00,
2013-02-01 00:31:00,50.5,49.1,30.14,SSE,153,0.0,0.0,95,0.00,,,0.00,0,Wunderground v.1.15,2013-01-31 23:31:00,
2013-02-01 00:36:00,50.5,48.8,30.14,SSE,153,0.0,0.0,94,0.00,,,0.00,0,Wunderground v.1.15,2013-01-31 23:36:00,
2013-02-01 00:41:00,50.5,48.8,30.14,SSE,151,0.0,1.0,94,0.00,,,0.00,0,Wunderground v.1.15,2013-01-31 23:41:00,
2013-02-01 00:51:00,50.7,48.7,30.14,SSE,151,0.0,0.0,93,0.00,,,0.00,0,Wunderground v.1.15,2013-01-31 23:51:00,
2013-02-01 01:01:00,50.8,48.6,30.13,SSE,155,0.0,0.0,92,0.00,,,0.00,0,Wunderground v.1.15,2013-02-01 00:01:00,
2013-02-01 01:06:00,50.8,48.6,30.13,SSE,155,0.0,1.0,92,0.00,,,0.00,0,Wunderground v.1.15,2013-02-01 00:06:00,
2013-02-01 01:16:00,50.7,48.2,30.12,SSE,166,1.0,1.0,91,0.00,,,0.00,0,Wunderground v.1.15,2013-02-01 00:16:00,
2013-02-01 01:21:00,50.6,48.1,30.12,SE,124,1.0,2.0,91,0.00,,,0.00,0,Wunderground v.1.15,2013-02-01 00:21:00,
2013-02-01 01:31:00,50.9,48.1,30.11,ESE,110,2.0,2.0,90,0.00,,,0.00,0,Wunderground v.1.15,2013-02-01 00:31:00,
2013-02-01 01:41:00,50.9,47.8,30.11,SSE,157,1.0,1.0,89,0.00,,,0.00,0,Wunderground v.1.15,2013-02-01 00:41:00,
2013-02-01 01:46:00,50.7,47.6,30.11,SSE,148,0.0,1.0,89,0.00,,,0.00,0,Wunderground v.1.15,2013-02-01 00:46:00,
2013-02-01 01:56:00,50.8,47.7,30.11,East,84,1.0,1.0,89,0.00,,,0.00,0,Wunderground v.1.15,2013-02-01 00:56:00,
2013-02-01 02:01:00,50.9,47.8,30.11,SE,129,1.0,1.0,89,0.00,,,0.00,0,Wunderground v.1.15,2013-02-01 01:01:00,
2013-02-01 02:11:00,51.2,48.1,30.10,SSE,161,0.0,0.0,89,0.00,,,0.00,0,Wunderground v.1.15,2013-02-01 01:11:00,
2013-02-01 02:16:00,51.3,48.5,30.10,SSE,157,0.0,0.0,90,0.00,,,0.00,0,Wunderground v.1.15,2013-02-01 01:16:00,
2013-02-01 02:26:00,51.5,48.7,30.09,ESE,114,1.0,1.0,90,0.00,,,0.00,0,Wunderground v.1.15,2013-02-01 01:26:00,
2013-02-01 02:31:00,51.5,49.0,30.09,SE,130,1.0,1.0,91,0.00,,,0.00,0,Wunderground v.1.15,2013-02-01 01:31:00,
2013-02-01 02:36:00,51.6,49.1,30.09,SSE,148,0.0,1.0,91,0.00,,,0.00,0,Wunderground v.1.15,2013-02-01 01:36:00,
2013-02-01 02:46:00,51.8,49.5,30.09,SE,134,1.0,1.0,92,0.00,,,0.00,0,Wunderground v.1.15,2013-02-01 01:46:00,
2013-02-01 02:51:00,51.7,49.5,30.09,East,93,1.0,1.0,92,0.00,,,0.00,0,Wunderground v.1.15,2013-02-01 01:51:00,
2013-02-01 03:01:00,51.6,49.4,30.09,ESE,117,0.0,0.0,92,0.00,,,0.00,0,Wunderground v.1.15,2013-02-01 02:01:00,
2013-02-01 03:11:00,51.6,49.4,30.08,SSE,163,1.0,1.0,92,0.00,,,0.00,0,Wunderground v.1.15,2013-02-01 02:11:00,
2013-02-01 03:16:00,51.6,49.4,30.08,SSE,148,1.0,1.0,92,0.00,,,0.00,0,Wunderground v.1.15,2013-02-01 02:16:00,
2013-02-01 03:26:00,51.7,49.5,30.08,South,181,1.0,1.0,92,0.00,,,0.00,0,Wunderground v.1.15,2013-02-01 02:26:00,
2013-02-01 03:36:00,51.7,49.5,30.07,SE,126,1.0,2.0,92,0.00,,,0.00,0,Wunderground v.1.15,2013-02-01 02:36:00,
2013-02-01 03:46:00,51.5,49.3,30.07,SE,140,1.0,1.0,92,0.00,,,0.00,0,Wunderground v.1.15,2013-02-01 02:46:00,
2013-02-01 03:51:00,51.5,49.3,30.07,SE,130,0.0,0.0,92,0.00,,,0.00,0,Wunderground v.1.15,2013-02-01 02:51:00,
2013-02-01 03:56:00,51.3,49.1,30.08,SSE,150,0.0,1.0,92,0.00,,,0.00,0,Wunderground v.1.15,2013-02-01 02:56:00,
2013-02-01 04:06:00,51.2,49.0,30.07,SSW,212,1.0,1.0,92,0.00,,,0.00,0,Wunderground v.1.15,2013-02-01 03:06:00,
2013-02-01 04:16:00,51.1,48.9,30.07,East,87,1.0,1.0,92,0.00,,,0.00,0,Wunderground v.1.15,2013-02-01 03:16:00,
2013-02-01 04:21:00,51.0,48.8,30.07,East,91,0.0,1.0,92,0.00,,,0.00,0,Wunderground v.1.15,2013-02-01 03:21:00,
2013-02-01 04:31:00,51.0,48.8,30.07,ESE,102,0.0,0.0,92,0.00,,,0.00,0,Wunderground v.1.15,2013-02-01 03:31:00,
2013-02-01 04:36:00,51.0,48.8,30.07,ESE,102,0.0,0.0,92,0.00,,,0.00,0,Wunderground v.1.15,2013-02-01 03:36:00,
2013-02-01 04:46:00,50.8,48.6,30.07,SE,140,0.0,1.0,92,0.00,,,0.00,0,Wunderground v.1.15,2013-02-01 03:46:00,
2013-02-01 04:51:00,50.9,48.7,30.06,SSE,153,1.0,1.0,92,0.00,,,0.00,0,Wunderground v.1.15,2013-02-01 03:51:00,
2013-02-01 05:01:00,50.8,48.6,30.06,SSE,153,0.0,0.0,92,0.00,,,0.00,0,Wunderground v.1.15,2013-02-01 04:01:00,
2013-02-01 05:06:00,50.6,48.4,30.06,SSE,153,0.0,0.0,92,0.00,,,0.00,0,Wunderground v.1.15,2013-02-01 04:06:00,
2013-02-01 05:16:00,50.5,48.6,30.06,SSE,153,0.0,1.0,93,0.00,,,0.00,0,Wunderground v.1.15,2013-02-01 04:16:00,
2013-02-01 05:26:00,50.3,48.4,30.06,SE,142,0.0,0.0,93,0.00,,,0.00,0,Wunderground v.1.15,2013-02-01 04:26:00,
2013-02-01 05:31:00,50.2,48.3,30.06,SE,142,1.0,1.0,93,0.00,,,0.00,0,Wunderground v.1.15,2013-02-01 04:31:00,
2013-02-01 05:41:00,49.8,47.9,30.06,SE,126,0.0,1.0,93,0.00,,,0.00,0,Wunderground v.1.15,2013-02-01 04:41:00,
2013-02-01 05:46:00,49.7,47.8,30.06,NE,55,1.0,1.0,93,0.00,,,0.00,0,Wunderground v.1.15,2013-02-01 04:46:00,
2013-02-01 05:56:00,50.2,48.3,30.05,SE,136,3.0,3.0,93,0.00,,,0.00,0,Wunderground v.1.15,2013-02-01 04:56:00,
2013-02-01 06:06:00,49.1,46.9,30.05,NE,55,3.0,5.0,92,0.00,,,0.00,0,Wunderground v.1.15,2013-02-01 05:06:00,
2013-02-01 06:11:00,48.9,46.7,30.05,SE,126,3.0,3.0,92,0.00,,,0.00,0,Wunderground v.1.15,2013-02-01 05:11:00,
2013-02-01 06:16:00,48.8,46.6,30.04,SE,124,1.0,3.0,92,0.00,,,0.00,0,Wunderground v.1.15,2013-02-01 05:16:00,
2013-02-01 06:21:00,48.6,46.4,30.04,SSE,149,1.0,1.0,92,0.00,,,0.00,0,Wunderground v.1.15,2013-02-01 05:21:00,
2013-02-01 06:26:00,48.7,46.5,30.05,SSE,149,1.0,1.0,92,0.00,,,0.00,0,Wunderground v.1.15,2013-02-01 05:26:00,
2013-02-01 06:31:00,48.5,46.3,30.06,NE,55,1.0,3.0,92,0.00,,,0.00,0,Wunderground v.1.15,2013-02-01 05:31:00,
2013-02-01 06:41:00,48.1,45.9,30.06,ENE,60,2.0,2.0,92,0.00,,,0.00,0,Wunderground v.1.15,2013-02-01 05:41:00,
2013-02-01 06:46:00,48.1,45.9,30.06,East,80,2.0,3.0,92,0.00,,,0.00,0,Wunderground v.1.15,2013-02-01 05:46:00,
2013-02-01 06:56:00,48.1,45.9,30.06,ENE,74,3.0,4.0,92,0.00,,,0.00,0,Wunderground v.1.15,2013-02-01 05:56:00,
2013-02-01 07:01:00,48.3,46.1,30.06,ENE,75,3.0,3.0,92,0.00,,,0.00,0,Wunderground v.1.15,2013-02-01 06:01:00,
2013-02-01 07:11:00,48.4,46.2,30.06,East,82,3.0,3.0,92,0.00,,,0.00,0,Wunderground v.1.15,2013-02-01 06:11:00,
2013-02-01 07:21:00,48.2,46.0,30.06,ENE,63,2.0,2.0,92,0.00,,,0.00,0,Wunderground v.1.15,2013-02-01 06:21:00,
2013-02-01 07:26:00,48.1,45.9,30.06,East,86,2.0,2.0,92,0.00,,,0.00,5,Wunderground v.1.15,2013-02-01 06:26:00,
2013-02-01 07:36:00,47.8,45.6,30.06,East,94,2.0,3.0,92,0.00,,,0.00,12,Wunderground v.1.15,2013-02-01 06:36:00,
2013-02-01 07:46:00,47.4,45.2,30.06,ENE,72,1.0,2.0,92,0.00,,,0.00,18,Wunderground v.1.15,2013-02-01 06:46:00,
2013-02-01 07:51:00,47.3,45.1,30.06,East,84,1.0,2.0,92,0.00,,,0.00,21,Wunderground v.1.15,2013-02-01 06:51:00,
2013-02-01 08:01:00,47.3,45.1,30.06,SE,127,1.0,1.0,92,0.00,,,0.00,26,Wunderground v.1.15,2013-02-01 07:01:00,
2013-02-01 08:06:00,47.3,45.1,30.06,NE,53,1.0,1.0,92,0.00,,,0.00,28,Wunderground v.1.15,2013-02-01 07:06:00,
2013-02-01 08:16:00,47.3,45.1,30.06,ENE,68,2.0,2.0,92,0.00,,,0.00,32,Wunderground v.1.15,2013-02-01 07:16:00,
2013-02-01 08:26:00,47.5,45.3,30.06,ENE,76,2.0,2.0,92,0.00,,,0.00,39,Wunderground v.1.15,2013-02-01 07:26:00,
2013-02-01 08:31:00,47.6,45.4,30.06,ENE,65,3.0,3.0,92,0.00,,,0.00,46,Wunderground v.1.15,2013-02-01 07:31:00,
2013-02-01 08:41:00,48.0,45.5,30.06,ENE,73,2.0,2.0,91,0.00,,,0.00,135,Wunderground v.1.15,2013-02-01 07:41:00,
2013-02-01 08:46:00,48.3,45.8,30.06,ENE,73,1.0,2.0,91,0.00,,,0.00,113,Wunderground v.1.15,2013-02-01 07:46:00,
2013-02-01 08:56:00,48.8,46.0,30.06,ENE,72,1.0,3.0,90,0.00,,,0.00,183,Wunderground v.1.15,2013-02-01 07:56:00,
2013-02-01 09:06:00,49.3,46.2,30.06,ENE,74,2.0,2.0,89,0.00,,,0.00,207,Wunderground v.1.15,2013-02-01 08:06:00,
2013-02-01 09:16:00,49.9,46.8,30.06,ENE,68,1.0,2.0,89,0.00,,,0.00,227,Wunderground v.1.15,2013-02-01 08:16:00,
2013-02-01 09:21:00,50.3,47.2,30.06,ENE,69,1.0,1.0,89,0.00,,,0.00,232,Wunderground v.1.15,2013-02-01 08:21:00,
2013-02-01 09:31:00,50.9,47.5,30.06,ENE,69,1.0,2.0,88,0.00,,,0.00,260,Wunderground v.1.15,2013-02-01 08:31:00,
2013-02-01 09:36:00,51.5,48.1,30.06,ENE,64,0.0,2.0,88,0.00,,,0.00,279,Wunderground v.1.15,2013-02-01 08:36:00,
2013-02-01 09:41:00,51.8,48.1,30.06,ENE,64,0.0,0.0,87,0.00,,,0.00,287,Wunderground v.1.15,2013-02-01 08:41:00,
2013-02-01 09:51:00,52.5,48.7,30.06,ENE,64,1.0,1.0,87,0.00,,,0.00,297,Wunderground v.1.15,2013-02-01 08:51:00,
2013-02-01 09:56:00,53.3,49.5,30.06,ENE,64,0.0,1.0,87,0.00,,,0.00,315,Wunderground v.1.15,2013-02-01 08:56:00,
2013-02-01 10:06:00,54.2,50.1,30.06,SSE,163,1.0,1.0,86,0.00,,,0.00,332,Wunderground v.1.15,2013-02-01 09:06:00,
2013-02-01 10:11:00,54.6,50.5,30.06,SSE,153,1.0,2.0,86,0.00,,,0.00,339,Wunderground v.1.15,2013-02-01 09:11:00,
2013-02-01 10:21:00,55.2,51.4,30.06,ESE,121,1.0,1.0,87,0.00,,,0.00,209,Wunderground v.1.15,2013-02-01 09:21:00,
2013-02-01 10:26:00,55.5,51.7,30.05,South,180,2.0,2.0,87,0.00,,,0.00,223,Wunderground v.1.15,2013-02-01 09:26:00,
2013-02-01 10:36:00,56.0,51.9,30.05,South,191,2.0,3.0,86,0.00,,,0.00,287,Wunderground v.1.15,2013-02-01 09:36:00,
2013-02-01 10:41:00,56.1,52.0,30.05,South,169,3.0,3.0,86,0.00,,,0.00,227,Wunderground v.1.15,2013-02-01 09:41:00,
2013-02-01 10:51:00,56.3,52.2,30.05,SSE,161,2.0,2.0,86,0.00,,,0.00,239,Wunderground v.1.15,2013-02-01 09:51:00,
2013-02-01 10:56:00,56.3,52.2,30.05,SE,144,3.0,3.0,86,0.00,,,0.00,209,Wunderground v.1.15,2013-02-01 09:56:00,
2013-02-01 11:06:00,56.5,52.0,30.05,SSE,153,4.0,6.0,85,0.00,,,0.00,267,Wunderground v.1.15,2013-02-01 10:06:00,
2013-02-01 11:11:00,56.8,52.3,30.05,SSE,158,4.0,4.0,85,0.00,,,0.00,287,Wunderground v.1.15,2013-02-01 10:11:00,
2013-02-01 11:21:00,56.9,52.1,30.05,South,179,3.0,4.0,84,0.00,,,0.00,197,Wunderground v.1.15,2013-02-01 10:21:00,
2013-02-01 11:26:00,56.8,52.0,30.05,SSE,165,3.0,6.0,84,0.00,,,0.00,241,Wunderground v.1.15,2013-02-01 10:26:00,
2013-02-01 11:36:00,57.2,52.4,30.04,SSE,153,3.0,4.0,84,0.00,,,0.00,225,Wunderground v.1.15,2013-02-01 10:36:00,
2013-02-01 11:46:00,57.2,52.1,30.03,SSE,158,4.0,7.0,83,0.00,,,0.00,264,Wunderground v.1.15,2013-02-01 10:46:00,
2013-02-01 11:51:00,57.0,51.9,30.03,SE,145,5.0,6.0,83,0.00,,,0.00,181,Wunderground v.1.15,2013-02-01 10:51:00,
2013-02-01 11:56:00,57.4,52.3,30.03,SE,142,5.0,8.0,83,0.00,,,0.00,448,Wunderground v.1.15,2013-02-01 10:56:00,
2013-02-01 12:06:00,57.9,52.4,30.02,ENE,75,4.0,4.0,82,0.00,,,0.00,429,Wunderground v.1.15,2013-02-01 11:06:00,
2013-02-01 12:16:00,58.2,52.4,30.02,South,169,3.0,4.0,81,0.00,,,0.00,378,Wunderground v.1.15,2013-02-01 11:16:00,
2013-02-01 12:21:00,58.2,52.4,30.02,SSE,150,4.0,4.0,81,0.00,,,0.00,287,Wunderground v.1.15,2013-02-01 11:21:00,
2013-02-01 12:31:00,58.2,52.4,30.01,SE,141,4.0,4.0,81,0.00,,,0.00,325,Wunderground v.1.15,2013-02-01 11:31:00,
2013-02-01 12:36:00,58.8,53.3,30.01,South,186,3.0,4.0,82,0.00,,,0.00,410,Wunderground v.1.15,2013-02-01 11:36:00,
2013-02-01 12:46:00,58.1,52.3,30.01,South,180,5.0,5.0,81,0.00,,,0.00,288,Wunderground v.1.15,2013-02-01 11:46:00,
2013-02-01 12:51:00,58.3,52.5,30.01,South,182,5.0,5.0,81,0.00,,,0.00,330,Wunderground v.1.15,2013-02-01 11:51:00,
2013-02-01 13:01:00,58.6,52.8,30.00,SSW,194,3.0,3.0,81,0.00,,,0.00,229,Wunderground v.1.15,2013-02-01 12:01:00,
2013-02-01 13:06:00,58.5,52.7,30.00,SSE,161,4.0,4.0,81,0.00,,,0.00,186,Wunderground v.1.15,2013-02-01 12:06:00,
2013-02-01 13:11:00,58.3,52.5,29.99,SE,131,5.0,5.0,81,0.00,,,0.00,139,Wunderground v.1.15,2013-02-01 12:11:00,
2013-02-01 13:21:00,58.7,53.2,29.99,SE,139,3.0,8.0,82,0.00,,,0.00,466,Wunderground v.1.15,2013-02-01 12:21:00,
2013-02-01 13:31:00,58.9,53.4,29.98,ESE,110,4.0,4.0,82,0.00,,,0.00,454,Wunderground v.1.15,2013-02-01 12:31:00,
2013-02-01 13:36:00,59.0,53.2,29.98,SE,139,4.0,5.0,81,0.00,,,0.00,439,Wunderground v.1.15,2013-02-01 12:36:00,
2013-02-01 13:46:00,58.9,53.1,29.97,South,169,5.0,8.0,81,0.00,,,0.00,438,Wunderground v.1.15,2013-02-01 12:46:00,
2013-02-01 13:51:00,59.0,52.8,29.97,SSE,150,5.0,8.0,80,0.00,,,0.00,394,Wunderground v.1.15,2013-02-01 12:51:00,
2013-02-01 14:01:00,59.1,52.9,29.96,SSE,150,5.0,5.0,80,0.00,,,0.00,399,Wunderground v.1.15,2013-02-01 13:01:00,
2013-02-01 14:06:00,59.3,52.8,29.96,SSE,162,4.0,5.0,79,0.00,,,0.00,404,Wunderground v.1.15,2013-02-01 13:06:00,
2013-02-01 14:16:00,59.8,52.9,29.97,South,176,5.0,5.0,78,0.00,,,0.00,403,Wunderground v.1.15,2013-02-01 13:16:00,
2013-02-01 14:26:00,60.1,52.5,29.97,SSW,195,4.0,6.0,76,0.00,,,0.00,404,Wunderground v.1.15,2013-02-01 13:26:00,
2013-02-01 14:31:00,59.7,52.5,29.97,South,187,4.0,6.0,77,0.00,,,0.00,292,Wunderground v.1.15,2013-02-01 13:31:00,
2013-02-01 14:36:00,59.5,52.3,29.96,South,171,5.0,7.0,77,0.00,,,0.00,380,Wunderground v.1.15,2013-02-01 13:36:00,
2013-02-01 14:46:00,58.9,52.1,29.96,South,180,5.0,5.0,78,0.00,,,0.00,221,Wunderground v.1.15,2013-02-01 13:46:00,
2013-02-01 14:51:00,58.7,52.2,29.96,SSE,161,5.0,10.0,79,0.00,,,0.00,355,Wunderground v.1.15,2013-02-01 13:51:00,
2013-02-01 14:56:00,58.7,52.5,29.96,SSE,156,5.0,10.0,80,0.00,,,0.00,338,Wunderground v.1.15,2013-02-01 13:56:00,
2013-02-01 15:06:00,58.2,52.1,29.95,SSE,156,5.0,10.0,80,0.00,,,0.00,200,Wunderground v.1.15,2013-02-01 14:06:00,
2013-02-01 15:11:00,58.0,52.2,29.95,SSE,156,5.0,7.0,81,0.00,,,0.00,183,Wunderground v.1.15,2013-02-01 14:11:00,
2013-02-01 15:16:00,57.7,52.2,29.94,SE,136,5.0,7.0,82,0.00,,,0.00,181,Wunderground v.1.15,2013-02-01 14:16:00,
2013-02-01 15:26:00,57.8,52.3,29.94,South,171,5.0,6.0,82,0.00,,,0.00,206,Wunderground v.1.15,2013-02-01 14:26:00,
2013-02-01 15:31:00,57.7,52.6,29.94,SSE,155,5.0,5.0,83,0.00,,,0.00,211,Wunderground v.1.15,2013-02-01 14:31:00,
2013-02-01 15:41:00,57.8,52.7,29.93,SSE,162,5.0,9.0,83,0.00,,,0.00,171,Wunderground v.1.15,2013-02-01 14:41:00,
2013-02-01 15:46:00,57.6,52.1,29.94,SSE,161,6.0,9.0,82,0.00,,,0.00,118,Wunderground v.1.15,2013-02-01 14:46:00,
2013-02-01 15:51:00,57.5,52.4,29.93,South,179,5.0,5.0,83,0.00,,,0.00,144,Wunderground v.1.15,2013-02-01 14:51:00,
2013-02-01 15:56:00,57.5,52.7,29.93,SSE,159,5.0,5.0,84,0.00,,,0.00,148,Wunderground v.1.15,2013-02-01 14:56:00,
2013-02-01 16:06:00,57.4,52.6,29.93,SE,133,4.0,5.0,84,0.00,,,0.00,114,Wunderground v.1.15,2013-02-01 15:06:00,
2013-02-01 16:11:00,57.4,52.6,29.93,SE,128,4.0,4.0,84,0.00,,,0.00,105,Wunderground v.1.15,2013-02-01 15:11:00,
2013-02-01 16:21:00,56.9,52.4,29.93,South,188,6.0,6.0,85,0.00,,,0.00,69,Wunderground v.1.15,2013-02-01 15:21:00,
2013-02-01 16:26:00,56.9,52.4,29.92,South,180,5.0,6.0,85,0.00,,,0.00,58,Wunderground v.1.15,2013-02-01 15:26:00,
2013-02-01 16:31:00,56.8,52.7,29.92,South,170,4.0,6.0,86,0.00,,,0.00,44,Wunderground v.1.15,2013-02-01 15:31:00,
2013-02-01 16:41:00,56.7,52.6,29.92,SSW,194,5.0,6.0,86,0.00,,,0.00,33,Wunderground v.1.15,2013-02-01 15:41:00,
2013-02-01 16:46:00,56.8,52.7,29.92,South,180,4.0,6.0,86,0.00,,,0.00,18,Wunderground v.1.15,2013-02-01 15:46:00,
2013-02-01 16:51:00,56.9,52.8,29.92,South,171,4.0,4.0,86,0.00,,,0.00,12,Wunderground v.1.15,2013-02-01 15:51:00,
2013-02-01 17:01:00,56.9,53.1,29.92,South,188,4.0,5.0,87,0.00,,,0.00,14,Wunderground v.1.15,2013-02-01 16:01:00,
2013-02-01 17:06:00,56.8,53.0,29.91,South,186,4.0,5.0,87,0.00,,,0.00,9,Wunderground v.1.15,2013-02-01 16:06:00,
2013-02-01 17:11:00,56.8,53.0,29.91,SSE,154,4.0,4.0,87,0.00,,,0.00,7,Wunderground v.1.15,2013-02-01 16:11:00,
2013-02-01 17:21:00,56.7,52.9,29.90,SSE,159,4.0,4.0,87,0.00,,,0.00,0,Wunderground v.1.15,2013-02-01 16:21:00,
2013-02-01 17:26:00,56.7,52.9,29.90,South,177,4.0,4.0,87,0.00,,,0.00,0,Wunderground v.1.15,2013-02-01 16:26:00,
2013-02-01 17:36:00,56.7,52.9,29.90,South,169,3.0,4.0,87,0.00,,,0.00,0,Wunderground v.1.15,2013-02-01 16:36:00,
2013-02-01 17:41:00,56.6,52.8,29.90,South,174,4.0,5.0,87,0.00,,,0.00,0,Wunderground v.1.15,2013-02-01 16:41:00,
2013-02-01 17:51:00,56.5,53.0,29.89,SSE,158,5.0,5.0,88,0.00,,,0.00,0,Wunderground v.1.15,2013-02-01 16:51:00,
2013-02-01 17:56:00,56.3,52.8,29.89,SSE,166,4.0,6.0,88,0.00,,,0.00,0,Wunderground v.1.15,2013-02-01 16:56:00,
2013-02-01 18:01:00,56.2,52.7,29.89,South,171,5.0,6.0,88,0.00,,,0.00,0,Wunderground v.1.15,2013-02-01 17:01:00,
2013-02-01 18:06:00,56.0,52.5,29.89,SSE,163,5.0,6.0,88,0.00,,,0.00,0,Wunderground v.1.15,2013-02-01 17:06:00,
2013-02-01 18:16:00,55.8,52.3,29.89,SSE,151,4.0,5.0,88,0.00,,,0.00,0,Wunderground v.1.15,2013-02-01 17:16:00,
2013-02-01 18:21:00,55.7,52.2,29.88,South,176,4.0,5.0,88,0.00,,,0.00,0,Wunderground v.1.15,2013-02-01 17:21:00,
2013-02-01 18:31:00,55.4,52.2,29.88,SE,143,5.0,7.0,89,0.00,,,0.00,0,Wunderground v.1.15,2013-02-01 17:31:00,
2013-02-01 18:36:00,55.3,52.1,29.88,SSE,162,5.0,7.0,89,0.00,,,0.00,0,Wunderground v.1.15,2013-02-01 17:36:00,
2013-02-01 18:46:00,55.1,51.9,29.88,South,188,5.0,6.0,89,0.00,,,0.00,0,Wunderground v.1.15,2013-02-01 17:46:00,
2013-02-01 18:56:00,54.9,51.7,29.88,SSE,147,4.0,6.0,89,0.00,,,0.00,0,Wunderground v.1.15,2013-02-01 17:56:00,
2013-02-01 19:01:00,54.7,51.5,29.87,SSE,162,3.0,3.0,89,0.00,,,0.00,0,Wunderground v.1.15,2013-02-01 18:01:00,
2013-02-01 19:06:00,54.6,51.7,29.87,SSE,162,3.0,3.0,90,0.00,,,0.00,0,Wunderground v.1.15,2013-02-01 18:06:00,
2013-02-01 19:16:00,54.3,51.4,29.87,South,178,4.0,4.0,90,0.00,,,0.00,0,Wunderground v.1.15,2013-02-01 18:16:00,
2013-02-01 19:21:00,54.1,51.5,29.87,SSE,155,3.0,6.0,91,0.00,,,0.00,0,Wunderground v.1.15,2013-02-01 18:21:00,
2013-02-01 19:31:00,54.0,51.4,29.86,SE,144,4.0,4.0,91,0.00,,,0.00,0,Wunderground v.1.15,2013-02-01 18:31:00,
2013-02-01 19:36:00,53.9,51.3,29.86,SSE,161,4.0,4.0,91,0.00,,,0.00,0,Wunderground v.1.15,2013-02-01 18:36:00,
2013-02-01 19:41:00,53.9,51.3,29.86,SSE,154,4.0,4.0,91,0.00,,,0.00,0,Wunderground v.1.15,2013-02-01 18:41:00,
2013-02-01 19:46:00,53.8,51.2,29.86,SE,145,4.0,6.0,91,0.00,,,0.00,0,Wunderground v.1.15,2013-02-01 18:46:00,
2013-02-01 19:56:00,53.8,51.5,29.85,SE,137,4.0,4.0,92,0.00,,,0.00,0,Wunderground v.1.15,2013-02-01 18:56:00,
2013-02-01 20:01:00,53.8,51.5,29.85,SE,140,3.0,3.0,92,0.00,,,0.00,0,Wunderground v.1.15,2013-02-01 19:01:00,
2013-02-01 20:11:00,53.8,51.5,29.84,SSE,157,2.0,5.0,92,0.00,,,0.00,0,Wunderground v.1.15,2013-02-01 19:11:00,
2013-02-01 20:21:00,53.8,51.5,29.84,SSW,211,3.0,3.0,92,0.00,,,0.00,0,Wunderground v.1.15,2013-02-01 19:21:00,
2013-02-01 20:26:00,53.9,51.6,29.84,SSE,159,3.0,5.0,92,0.00,,,0.00,0,Wunderground v.1.15,2013-02-01 19:26:00,
2013-02-01 20:36:00,54.1,51.8,29.84,SE,144,5.0,5.0,92,0.00,,,0.00,0,Wunderground v.1.15,2013-02-01 19:36:00,
2013-02-01 20:41:00,54.1,51.8,29.84,SSE,157,4.0,6.0,92,0.00,,,0.00,0,Wunderground v.1.15,2013-02-01 19:41:00,
2013-02-01 20:46:00,54.0,51.7,29.83,SSE,157,4.0,6.0,92,0.00,,,0.00,0,Wunderground v.1.15,2013-02-01 19:46:00,
2013-02-01 20:51:00,54.0,51.7,29.83,SE,146,5.0,5.0,92,0.00,,,0.00,0,Wunderground v.1.15,2013-02-01 19:51:00,
2013-02-01 21:01:00,53.9,51.6,29.82,SE,131,4.0,5.0,92,0.00,,,0.00,0,Wunderground v.1.15,2013-02-01 20:01:00,
2013-02-01 21:06:00,53.9,51.6,29.82,SE,146,4.0,6.0,92,0.00,,,0.00,0,Wunderground v.1.15,2013-02-01 20:06:00,
2013-02-01 21:16:00,53.9,51.6,29.81,South,190,5.0,5.0,92,0.00,,,0.00,0,Wunderground v.1.15,2013-02-01 20:16:00,
2013-02-01 21:26:00,54.0,51.7,29.81,SSE,163,4.0,4.0,92,0.00,,,0.00,0,Wunderground v.1.15,2013-02-01 20:26:00,
2013-02-01 21:31:00,54.1,51.8,29.81,SSE,168,3.0,3.0,92,0.00,,,0.00,0,Wunderground v.1.15,2013-02-01 20:31:00,
2013-02-01 21:41:00,54.3,52.0,29.80,SE,140,4.0,4.0,92,0.00,,,0.00,0,Wunderground v.1.15,2013-02-01 20:41:00,
2013-02-01 21:46:00,54.3,52.0,29.80,SSE,153,4.0,5.0,92,0.00,,,0.00,0,Wunderground v.1.15,2013-02-01 20:46:00,
2013-02-01 21:56:00,54.3,51.7,29.79,SE,146,4.0,11.0,91,0.00,,,0.00,0,Wunderground v.1.15,2013-02-01 20:56:00,
2013-02-01 22:06:00,54.4,51.8,29.79,ESE,112,6.0,8.0,91,0.00,,,0.00,0,Wunderground v.1.15,2013-02-01 21:06:00,
2013-02-01 22:11:00,54.4,51.8,29.79,South,171,5.0,5.0,91,0.00,,,0.00,0,Wunderground v.1.15,2013-02-01 21:11:00,
2013-02-01 22:16:00,54.4,51.8,29.78,SSE,160,5.0,5.0,91,0.00,,,0.00,0,Wunderground v.1.15,2013-02-01 21:16:00,
2013-02-01 22:26:00,54.4,51.8,29.77,SE,130,5.0,8.0,91,0.00,,,0.00,0,Wunderground v.1.15,2013-02-01 21:26:00,
2013-02-01 22:31:00,54.5,51.6,29.77,SSE,157,5.0,5.0,90,0.00,,,0.00,0,Wunderground v.1.15,2013-02-01 21:31:00,
2013-02-01 22:41:00,54.6,51.7,29.76,SSE,152,5.0,11.0,90,0.00,,,0.00,0,Wunderground v.1.15,2013-02-01 21:41:00,
2013-02-01 22:46:00,54.7,51.8,29.76,ESE,105,4.0,11.0,90,0.00,,,0.00,0,Wunderground v.1.15,2013-02-01 21:46:00,
2013-02-01 22:56:00,54.8,51.6,29.75,SE,126,6.0,8.0,89,0.00,,,0.00,0,Wunderground v.1.15,2013-02-01 21:56:00,
2013-02-01 23:01:00,54.8,51.6,29.74,ESE,117,6.0,6.0,89,0.00,,,0.00,0,Wunderground v.1.15,2013-02-01 22:01:00,
2013-02-01 23:11:00,54.8,51.3,29.74,SSE,151,6.0,6.0,88,0.00,,,0.00,0,Wunderground v.1.15,2013-02-01 22:11:00,
2013-02-01 23:21:00,54.9,51.4,29.74,SSE,157,7.0,7.0,88,0.00,,,0.00,0,Wunderground v.1.15,2013-02-01 22:21:00,
2013-02-01 23:26:00,54.9,51.4,29.74,South,173,5.0,7.0,88,0.00,,,0.00,0,Wunderground v.1.15,2013-02-01 22:26:00,
2013-02-01 23:36:00,54.9,51.4,29.73,South,175,6.0,12.0,88,0.00,,,0.00,0,Wunderground v.1.15,2013-02-01 22:36:00,
2013-02-01 23:41:00,55.1,51.6,29.73,SSE,148,6.0,11.0,88,0.00,,,0.00,0,Wunderground v.1.15,2013-02-01 22:41:00,
2013-02-01 23:51:00,55.1,51.6,29.72,SE,127,6.0,8.0,88,0.00,,,0.00,0,Wunderground v.1.15,2013-02-01 22:51:00,
2013-02-01 23:56:00,55.2,51.7,29.72,SE,140,7.0,17.0,88,0.00,,,0.00,0,Wunderground v.1.15,2013-02-01 22:56:00,